Time;durP1;ratioP1;P1;durP2;ratioP2;P2;SDS_P1;SDS_P2;PMS_P1;PMS_P2;Temp;Humidity;BMP_temperature;BMP_pressure;BME280_temperature;BME280_humidity;BME280_pressure;Samples;Min_cycle;Max_cycle;Signal;HPM_P1;HPM_P2
2023/08/13 00:00:20;;;;;;;14.27;11.20;;;;;;;23.80;48.75;100928.94;21076539;28;20083;-62
2023/08/13 00:10:21;;;;;;;13.50;11.50;;;;;;;23.99;50.05;100944.88;21076057;28;20044;-63
2023/08/13 00:20:23;;;;;;;14.70;11.25;;;;;;;24.04;50.48;100961.56;21075773;28;20089;-63
2023/08/13 00:30:24;;;;;;;16.80;11.38;;;;;;;24.09;50.33;100964.28;21075416;28;20036;-62
2023/08/13 00:40:25;;;;;;;12.43;9.70;;;;;;;24.10;50.62;100960.38;21073573;28;20101;-62
2023/08/13 00:50:28;;;;;;;14.18;10.75;;;;;;;24.09;50.67;100947.50;21021124;28;20463;-62
2023/08/13 01:00:31;;;;;;;13.38;10.48;;;;;;;24.14;50.85;100936.25;21063212;28;20449;-63
2023/08/13 01:10:36;;;;;;;17.77;11.30;;;;;;;24.15;51.74;100929.53;21061176;28;20519;-63
2023/08/13 01:20:39;;;;;;;14.05;10.68;;;;;;;24.31;51.06;100944.09;21085638;28;20036;-63
2023/08/13 01:31:01;;;;;;;14.90;9.85;;;;;;;24.15;51.05;100934.31;21086738;28;20044;-63
2023/08/13 01:41:04;;;;;;;12.50;10.15;;;;;;;24.32;50.85;100957.78;21087736;28;20043;-63
2023/08/13 01:51:05;;;;;;;11.55;9.52;;;;;;;24.35;50.61;100946.00;21086767;28;20044;-62
2023/08/13 02:01:07;;;;;;;11.30;9.93;;;;;;;24.41;49.93;100943.13;21086800;28;20066;-63
2023/08/13 02:11:08;;;;;;;14.77;10.90;;;;;;;24.32;50.30;100946.59;21086452;28;20421;-62
2023/08/13 02:21:12;;;;;;;12.60;9.75;;;;;;;24.37;50.23;100954.09;21085096;28;20097;-64
2023/08/13 02:31:14;;;;;;;10.63;9.15;;;;;;;24.14;50.01;100932.63;21083765;28;20391;-62
2023/08/13 02:41:15;;;;;;;12.18;9.15;;;;;;;24.38;50.27;100954.94;21073379;28;20532;-62
2023/08/13 02:51:17;;;;;;;14.30;10.55;;;;;;;24.33;50.92;100959.47;21067178;28;20438;-61
2023/08/13 03:01:19;;;;;;;12.77;10.38;;;;;;;24.42;51.04;100961.56;21078197;28;20109;-59
2023/08/13 03:11:21;;;;;;;19.05;10.48;;;;;;;24.40;51.15;100986.22;21070006;28;20032;-63
2023/08/13 03:21:22;;;;;;;18.10;9.63;;;;;;;24.35;51.03;100981.53;21062796;28;20487;-63
2023/08/13 03:31:24;;;;;;;79.07;57.30;;;;;;;24.16;53.29;100964.75;21061856;28;20066;-62
2023/08/13 03:41:25;;;;;;;141.05;109.45;;;;;;;24.47;53.19;100998.72;21064198;28;20039;-61
2023/08/13 03:51:26;;;;;;;176.13;138.38;;;;;;;24.44;52.79;100979.72;21067079;28;20093;-63
2023/08/13 04:01:28;;;;;;;200.40;160.43;;;;;;;24.41;52.26;100959.91;21044046;28;20491;-62
2023/08/13 04:11:29;;;;;;;189.45;151.23;;;;;;;24.35;51.87;100948.78;21070863;28;20051;-63
2023/08/13 04:21:31;;;;;;;158.10;126.80;;;;;;;24.40;51.82;100972.25;21073792;28;20036;-62
2023/08/13 04:31:33;;;;;;;137.10;105.57;;;;;;;24.40;51.41;100986.22;21076213;28;20052;-63
2023/08/13 04:41:34;;;;;;;116.13;89.25;;;;;;;24.42;51.81;100979.22;21064004;28;20070;-62
2023/08/13 04:51:35;;;;;;;94.30;74.40;;;;;;;24.40;52.13;100961.88;21080142;28;20052;-62
2023/08/13 05:01:40;;;;;;;80.72;62.75;;;;;;;24.40;51.90;100935.88;21087315;28;20437;-62
2023/08/13 05:11:41;;;;;;;73.60;55.67;;;;;;;24.42;51.87;100950.38;21081360;28;20043;-62
2023/08/13 05:21:42;;;;;;;62.15;47.47;;;;;;;24.44;52.98;100945.34;21078348;28;20469;-62
2023/08/13 05:31:44;;;;;;;52.55;42.92;;;;;;;24.44;53.10;100957.34;21090774;28;20044;-62
2023/08/13 05:41:45;;;;;;;49.05;38.60;;;;;;;24.45;52.62;100955.38;21091507;28;20032;-62
2023/08/13 05:51:50;;;;;;;41.05;32.97;;;;;;;24.42;52.10;100967.16;21082070;28;20040;-62
2023/08/13 06:01:51;;;;;;;38.97;30.70;;;;;;;24.46;52.33;100951.44;21084238;28;20032;-62
2023/08/13 06:11:53;;;;;;;34.17;28.70;;;;;;;24.38;51.45;100893.44;21084687;28;20556;-63
2023/08/13 06:21:57;;;;;;;30.42;26.17;;;;;;;24.36;51.72;100879.69;21080441;28;20097;-63
2023/08/13 06:31:58;;;;;;;28.40;23.27;;;;;;;24.39;51.47;100872.69;21075651;28;20420;-62
2023/08/13 06:41:59;;;;;;;25.58;22.02;;;;;;;23.87;51.33;100796.38;21081912;28;20048;-62
2023/08/13 06:52:01;;;;;;;23.35;20.02;;;;;;;24.33;51.43;100903.53;21081189;28;20052;-63
2023/08/13 07:02:10;;;;;;;23.67;20.02;;;;;;;24.30;51.00;100867.78;21080877;28;20047;-62
2023/08/13 07:12:12;;;;;;;22.23;18.88;;;;;;;24.29;50.88;100880.09;21079949;28;20032;-62
2023/08/13 07:22:16;;;;;;;21.10;17.33;;;;;;;24.26;50.67;100868.69;21079418;28;20075;-62
2023/08/13 07:32:18;;;;;;;20.70;16.60;;;;;;;24.24;50.28;100882.97;21071435;28;20044;-63
2023/08/13 07:42:19;;;;;;;19.90;15.32;;;;;;;24.20;50.51;100856.75;21072344;28;20047;-62
2023/08/13 07:52:20;;;;;;;16.00;14.30;;;;;;;24.20;50.43;100814.81;21073214;28;20483;-62
2023/08/13 08:02:23;;;;;;;15.30;12.75;;;;;;;24.21;49.90;100818.44;21070432;28;20101;-61
2023/08/13 08:12:24;;;;;;;16.20;13.57;;;;;;;24.17;49.69;100854.56;21072419;28;20044;-61
2023/08/13 08:22:26;;;;;;;14.98;13.38;;;;;;;24.16;49.77;100844.53;21060136;28;20109;-62
2023/08/13 08:32:29;;;;;;;13.65;12.25;;;;;;;24.16;49.91;100836.13;21075163;28;20066;-62
2023/08/13 08:42:33;;;;;;;14.27;11.98;;;;;;;24.17;49.79;100854.56;21075316;28;20040;-62
2023/08/13 08:52:35;;;;;;;15.25;11.55;;;;;;;24.11;49.71;100861.38;21075428;28;20040;-63
2023/08/13 09:02:40;;;;;;;11.07;9.98;;;;;;;24.09;49.62;100870.06;21069247;28;20036;-62
2023/08/13 09:12:42;;;;;;;12.57;10.35;;;;;;;24.08;49.45;100867.59;21068350;28;20155;-62
2023/08/13 09:22:45;;;;;;;10.63;9.52;;;;;;;24.04;49.85;100864.56;21065806;28;20044;-62
2023/08/13 09:32:46;;;;;;;11.40;9.98;;;;;;;24.03;49.67;100881.63;21062716;28;20040;-62
2023/08/13 09:42:53;;;;;;;10.23;9.13;;;;;;;24.00;49.47;100871.88;21077872;28;20035;-61
2023/08/13 09:52:56;;;;;;;9.98;8.55;;;;;;;24.03;49.72;100862.06;21081822;28;20433;-63
2023/08/13 10:02:58;;;;;;;9.98;8.98;;;;;;;23.88;49.85;100845.56;21074222;28;20074;-61
2023/08/13 10:13:00;;;;;;;10.40;8.65;;;;;;;24.00;49.29;100882.25;21072626;28;20368;-62
2023/08/13 10:23:04;;;;;;;8.82;7.53;;;;;;;23.94;49.62;100878.69;21071339;28;20048;-62
2023/08/13 10:33:05;;;;;;;8.63;7.75;;;;;;;23.98;49.56;100901.28;21070607;28;20052;-61
2023/08/13 10:43:20;;;;;;;9.48;7.82;;;;;;;23.91;49.80;100929.59;21076313;28;20040;-62
2023/08/13 10:53:26;;;;;;;8.52;7.63;;;;;;;21.79;49.64;100601.56;21073059;28;20036;-62
2023/08/13 11:03:30;;;;;;;7.70;7.00;;;;;;;23.90;49.58;100966.25;21072218;28;20160;-62
2023/08/13 11:13:32;;;;;;;8.70;7.47;;;;;;;23.88;49.73;100982.50;21075696;28;20059;-62
2023/08/13 11:23:33;;;;;;;8.35;6.32;;;;;;;23.78;49.75;100973.13;21069061;28;20098;-63
2023/08/13 11:33:35;;;;;;;8.63;7.25;;;;;;;23.89;49.80;100981.34;21066431;28;20069;-63
2023/08/13 11:43:36;;;;;;;8.27;6.38;;;;;;;23.86;49.98;100987.53;21066314;28;20051;-62
2023/08/13 11:53:45;;;;;;;7.32;6.25;;;;;;;23.73;50.23;101000.25;21063059;28;20043;-63
2023/08/13 12:03:56;;;;;;;6.70;6.00;;;;;;;23.79;50.19;101011.09;21065133;28;20066;-63
2023/08/13 12:14:04;;;;;;;6.65;5.93;;;;;;;23.88;49.36;101027.22;21063307;28;20035;-62
2023/08/13 12:24:06;;;;;;;6.93;6.22;;;;;;;23.79;50.35;101038.22;21066276;28;20048;-63
2023/08/13 12:34:08;;;;;;;6.70;6.00;;;;;;;23.88;50.29;101058.78;21064758;28;20066;-63
2023/08/13 12:44:09;;;;;;;6.40;5.70;;;;;;;23.86;50.30;101088.13;21063221;28;20040;-61
2023/08/13 12:54:11;;;;;;;5.72;5.15;;;;;;;23.80;50.27;101096.59;21061960;28;20036;-62
2023/08/13 13:04:12;;;;;;;6.85;5.28;;;;;;;23.81;50.23;101087.06;21065098;28;20047;-63
2023/08/13 13:14:14;;;;;;;5.97;5.22;;;;;;;23.88;50.22;101097.06;21070904;28;20044;-63
2023/08/13 13:24:15;;;;;;;5.50;5.00;;;;;;;23.86;50.12;101082.56;21082666;28;20101;-62
2023/08/13 13:34:17;;;;;;;6.00;5.40;;;;;;;23.83;49.93;101101.59;21076508;28;20730;-62
2023/08/13 13:44:19;;;;;;;8.35;5.05;;;;;;;23.84;50.17;101111.63;21076337;28;20051;-62
2023/08/13 13:54:21;;;;;;;6.00;5.25;;;;;;;23.82;50.24;101099.94;21066221;28;20506;-62
2023/08/13 14:04:22;;;;;;;5.47;4.78;;;;;;;23.84;50.09;101103.25;21076643;28;20032;-63
2023/08/13 14:14:23;;;;;;;7.25;4.78;;;;;;;23.86;50.10;101099.31;21054302;28;20487;-62
2023/08/13 14:24:25;;;;;;;11.43;4.90;;;;;;;23.74;50.36;101095.00;21066301;28;20044;-62
2023/08/13 14:34:26;;;;;;;8.57;4.53;;;;;;;23.81;50.67;101092.66;21072468;28;20097;-64
2023/08/13 14:44:28;;;;;;;6.65;4.40;;;;;;;23.86;51.08;101104.91;21079508;28;20040;-62
2023/08/13 14:54:29;;;;;;;6.05;4.68;;;;;;;23.78;51.14;101109.22;21083007;28;20036;-61
2023/08/13 15:04:30;;;;;;;7.25;4.13;;;;;;;23.83;51.08;101112.78;21079340;28;20055;-62
2023/08/13 15:14:32;;;;;;;7.72;4.35;;;;;;;23.84;50.85;101111.63;21081842;28;20113;-62
2023/08/13 15:24:33;;;;;;;5.80;4.30;;;;;;;23.88;51.54;101108.25;21080646;28;20044;-61
2023/08/13 15:34:35;;;;;;;4.93;4.43;;;;;;;23.81;51.30;101112.22;21071415;28;20048;-62
2023/08/13 15:44:37;;;;;;;4.25;3.85;;;;;;;23.94;51.36;101112.66;21071625;28;20040;-62
2023/08/13 15:54:38;;;;;;;5.60;4.47;;;;;;;23.95;51.19;101114.31;21075047;28;20102;-61
2023/08/13 16:04:42;;;;;;;5.93;3.95;;;;;;;23.95;50.98;101101.16;21074438;28;20449;-61
2023/08/13 16:14:43;;;;;;;6.32;4.75;;;;;;;24.00;51.26;101134.63;21071580;28;20044;-61
2023/08/13 16:24:46;;;;;;;6.00;4.53;;;;;;;23.98;51.12;101113.72;21056277;28;20072;-61
2023/08/13 16:34:48;;;;;;;6.00;4.70;;;;;;;23.99;51.31;101109.78;21065045;28;20032;-61
2023/08/13 16:44:50;;;;;;;4.70;4.18;;;;;;;23.97;51.42;101095.28;21075102;28;20548;-62
2023/08/13 16:54:51;;;;;;;5.43;4.53;;;;;;;24.03;51.66;101108.06;21085570;28;20093;-62
2023/08/13 17:04:52;;;;;;;5.63;4.40;;;;;;;24.07;51.51;101125.91;21080755;28;20475;-61
2023/08/13 17:14:59;;;;;;;4.55;4.15;;;;;;;24.10;51.53;101139.31;21088059;28;20052;-61
2023/08/13 17:25:01;;;;;;;5.23;4.40;;;;;;;24.12;51.14;101142.63;21086041;28;20094;-62
2023/08/13 17:35:03;;;;;;;4.78;4.28;;;;;;;24.11;51.59;101142.94;21083131;28;20114;-62
2023/08/13 17:45:05;;;;;;;4.78;3.70;;;;;;;23.98;51.66;101130.50;21083266;28;20083;-62
2023/08/13 17:55:07;;;;;;;4.55;4.15;;;;;;;24.15;51.29;101175.59;21078370;28;20055;-63
2023/08/13 18:05:09;;;;;;;4.25;3.67;;;;;;;24.03;51.69;101153.63;21080943;28;20113;-61
2023/08/13 18:15:11;;;;;;;6.90;4.35;;;;;;;24.17;51.65;101167.72;21080688;28;20036;-62
2023/08/13 18:25:12;;;;;;;6.70;4.20;;;;;;;24.09;51.65;101165.56;21082541;28;20047;-62
2023/08/13 18:35:14;;;;;;;9.82;4.45;;;;;;;24.28;51.47;101179.59;21080834;28;20572;-63
2023/08/13 18:45:17;;;;;;;4.35;3.75;;;;;;;24.29;51.74;101173.72;21078258;28;20093;-63
2023/08/13 18:55:19;;;;;;;6.55;4.35;;;;;;;24.34;51.96;101164.44;21076482;28;20043;-61
2023/08/13 19:05:20;;;;;;;6.65;3.72;;;;;;;24.33;52.33;101158.03;21059099;28;20099;-61
2023/08/13 19:15:21;;;;;;;7.43;4.28;;;;;;;24.30;52.09;101154.97;21077834;28;20028;-62
2023/08/13 19:25:26;;;;;;;5.78;3.72;;;;;;;24.36;52.54;101148.19;21046032;28;20105;-62
2023/08/13 19:35:27;;;;;;;4.28;3.63;;;;;;;24.37;52.52;101137.84;21064080;28;20059;-62
2023/08/13 19:45:29;;;;;;;4.03;3.63;;;;;;;24.39;52.50;101142.03;21077747;28;20040;-61
2023/08/13 19:55:32;;;;;;;4.72;3.55;;;;;;;24.39;52.28;101149.59;21077347;28;20532;-61
2023/08/13 20:05:34;;;;;;;5.53;3.80;;;;;;;24.34;52.36;101130.88;21070668;28;20036;-62
2023/08/13 20:15:35;;;;;;;8.38;3.63;;;;;;;25.14;51.03;101165.59;21076940;28;20032;-64
2023/08/13 20:25:36;;;;;;;8.23;3.28;;;;;;;25.21;49.70;101175.31;21074296;28;20044;-62
2023/08/13 20:35:38;;;;;;;10.10;3.65;;;;;;;25.17;50.17;101157.44;21063495;28;20149;-61
2023/08/13 20:45:40;;;;;;;5.75;3.33;;;;;;;25.11;50.49;101158.66;21052618;28;20113;-62
2023/08/13 20:55:41;;;;;;;5.90;3.92;;;;;;;25.09;50.79;101155.31;21072020;28;20117;-61
2023/08/13 21:05:43;;;;;;;6.35;3.70;;;;;;;24.99;50.94;101166.66;21075841;28;20039;-60
2023/08/13 21:15:45;;;;;;;5.40;3.40;;;;;;;24.94;50.72;101189.13;21069252;28;20048;-63
2023/08/13 21:25:46;;;;;;;8.18;3.67;;;;;;;24.80;50.46;101175.88;21069305;28;20040;-64
2023/08/13 21:35:47;;;;;;;3.60;3.03;;;;;;;24.65;50.66;101178.91;21074087;28;20089;-64
2023/08/13 21:45:49;;;;;;;5.45;3.40;;;;;;;24.62;50.67;101178.66;21086874;28;20043;-64
2023/08/13 21:55:50;;;;;;;5.38;3.50;;;;;;;24.52;50.69;101176.84;21080873;28;20044;-64
2023/08/13 22:05:52;;;;;;;5.20;3.33;;;;;;;24.30;50.92;101171.75;21049148;28;20484;-64
2023/08/13 22:15:53;;;;;;;4.07;3.35;;;;;;;24.35;50.86;101180.91;21079927;28;20451;-64
2023/08/13 22:25:54;;;;;;;6.20;3.90;;;;;;;24.26;50.21;101191.09;21075463;28;20510;-64
2023/08/13 22:35:56;;;;;;;4.78;4.30;;;;;;;24.20;51.05;101188.66;21083537;28;20453;-63
2023/08/13 22:45:57;;;;;;;7.22;4.80;;;;;;;24.20;52.43;101195.09;21076498;28;20036;-63
2023/08/13 22:55:58;;;;;;;5.30;4.50;;;;;;;24.61;55.44;101200.22;21073948;28;20040;-63
2023/08/13 23:06:00;;;;;;;7.65;4.82;;;;;;;24.87;56.19;101202.66;21078794;28;20540;-64
2023/08/13 23:16:01;;;;;;;6.85;4.35;;;;;;;24.98;56.23;101207.81;21069347;28;20047;-64
2023/08/13 23:26:02;;;;;;;5.38;4.28;;;;;;;25.22;55.89;101220.94;21075311;28;20039;-64
2023/08/13 23:36:04;;;;;;;4.07;3.67;;;;;;;25.40;55.33;101238.88;21076986;28;20101;-63
2023/08/13 23:46:05;;;;;;;5.15;4.60;;;;;;;25.48;55.55;101257.81;21075336;28;20039;-66
2023/08/13 23:56:07;;;;;;;4.05;3.65;;;;;;;25.64;55.18;101278.81;21076825;28;20108;-63
